createdAt,value
2018-05-27T00:00:15.384Z,0
2018-05-27T00:00:55.939Z,0
2018-05-27T00:01:36.527Z,0
2018-05-27T00:02:17.071Z,0
2018-05-27T00:02:57.706Z,0
2018-05-27T00:03:38.247Z,0
2018-05-27T00:04:18.809Z,0
2018-05-27T00:04:59.380Z,0
2018-05-27T00:05:39.936Z,0
2018-05-27T00:06:20.510Z,0
2018-05-27T00:07:01.072Z,0
2018-05-27T00:07:41.606Z,0
2018-05-27T00:08:22.154Z,0
2018-05-27T00:09:02.706Z,0
2018-05-27T00:09:43.260Z,0
2018-05-27T00:10:24.675Z,0
2018-05-27T00:11:05.204Z,0
2018-05-27T00:11:45.766Z,0
2018-05-27T00:12:26.324Z,0
2018-05-27T00:13:07.063Z,0
2018-05-27T00:13:48.030Z,0
2018-05-27T00:14:28.631Z,0
2018-05-27T00:15:09.135Z,0
2018-05-27T00:15:49.715Z,0
2018-05-27T00:16:30.268Z,0
2018-05-27T00:17:10.847Z,0
2018-05-27T00:17:51.404Z,0
2018-05-27T00:18:31.928Z,0
2018-05-27T00:19:12.545Z,0
2018-05-27T00:19:53.102Z,0
2018-05-27T00:20:33.655Z,0
2018-05-27T00:21:14.231Z,0
2018-05-27T00:21:54.849Z,0
2018-05-27T00:22:35.387Z,0
2018-05-27T00:23:15.935Z,0
2018-05-27T00:23:56.487Z,0
2018-05-27T00:24:37.060Z,0
2018-05-27T00:25:17.615Z,0
2018-05-27T00:25:58.199Z,0
2018-05-27T00:26:38.767Z,0
2018-05-27T00:27:19.333Z,0
2018-05-27T00:27:59.879Z,0
2018-05-27T00:28:40.444Z,0
2018-05-27T00:29:20.993Z,0
2018-05-27T00:30:01.529Z,0
2018-05-27T00:30:42.085Z,0
2018-05-27T00:31:22.650Z,0
2018-05-27T00:32:03.213Z,0
2018-05-27T00:32:43.764Z,0
2018-05-27T00:33:24.323Z,0
2018-05-27T00:34:04.863Z,0
2018-05-27T00:34:45.406Z,0
2018-05-27T00:35:25.952Z,0
2018-05-27T00:36:06.497Z,0
2018-05-27T00:36:47.079Z,0
2018-05-27T00:37:27.656Z,0
2018-05-27T00:38:08.232Z,0
2018-05-27T00:38:48.777Z,0
2018-05-27T00:39:29.333Z,0
2018-05-27T00:40:09.875Z,0
2018-05-27T00:40:50.412Z,0
2018-05-27T00:41:30.966Z,0
2018-05-27T00:42:11.511Z,0
2018-05-27T00:42:52.055Z,0
2018-05-27T00:43:32.660Z,0
2018-05-27T00:44:13.157Z,0
2018-05-27T00:44:53.753Z,0
2018-05-27T00:45:34.320Z,0
2018-05-27T00:46:14.872Z,0
2018-05-27T00:46:55.447Z,0
2018-05-27T00:47:36.009Z,0
2018-05-27T00:48:16.559Z,0
2018-05-27T00:48:57.100Z,0
2018-05-27T00:49:37.638Z,0
2018-05-27T00:50:18.176Z,0
2018-05-27T00:50:58.741Z,0
2018-05-27T00:51:39.842Z,0
2018-05-27T00:52:20.383Z,0
2018-05-27T00:53:00.965Z,0
2018-05-27T00:53:41.529Z,0
2018-05-27T00:54:22.104Z,0
2018-05-27T00:55:02.648Z,0
2018-05-27T00:55:43.231Z,0
2018-05-27T00:56:23.790Z,0
2018-05-27T00:57:04.349Z,0
2018-05-27T00:57:44.911Z,0
2018-05-27T00:58:25.476Z,0
2018-05-27T00:59:06.033Z,0
2018-05-27T00:59:46.601Z,0
2018-05-27T01:00:27.132Z,0
2018-05-27T01:01:07.684Z,0
2018-05-27T01:01:48.239Z,0
2018-05-27T01:02:28.801Z,0
2018-05-27T01:03:09.345Z,0
2018-05-27T01:03:49.940Z,0
2018-05-27T01:04:30.517Z,0
2018-05-27T01:05:11.048Z,0
2018-05-27T01:05:51.628Z,0
2018-05-27T01:06:32.199Z,0
2018-05-27T01:07:12.766Z,0
2018-05-27T01:07:53.325Z,0
2018-05-27T01:08:33.966Z,0
2018-05-27T01:09:14.520Z,0
2018-05-27T01:09:55.068Z,0
2018-05-27T01:10:35.623Z,0
2018-05-27T01:11:16.178Z,0
2018-05-27T01:11:56.752Z,0
2018-05-27T01:12:37.296Z,0
2018-05-27T01:13:17.838Z,0
2018-05-27T01:13:58.389Z,0
2018-05-27T01:14:38.980Z,0
2018-05-27T01:15:19.542Z,0
2018-05-27T01:16:00.119Z,0
2018-05-27T01:16:40.687Z,0
2018-05-27T01:17:21.229Z,0
2018-05-27T01:18:01.774Z,0
2018-05-27T01:18:42.344Z,0
2018-05-27T01:19:22.924Z,0
2018-05-27T01:20:03.464Z,0
2018-05-27T01:20:44.025Z,0
2018-05-27T01:21:24.592Z,0
2018-05-27T01:22:05.136Z,0
2018-05-27T01:22:45.691Z,0
2018-05-27T01:23:26.256Z,0
2018-05-27T01:24:06.849Z,0
2018-05-27T01:24:47.378Z,0
2018-05-27T01:25:27.946Z,0
2018-05-27T01:26:08.510Z,0
2018-05-27T01:26:49.094Z,0
2018-05-27T01:27:29.650Z,0
2018-05-27T01:28:10.183Z,0
2018-05-27T01:28:50.752Z,0
2018-05-27T01:29:31.303Z,0
2018-05-27T01:30:11.864Z,0
2018-05-27T01:30:52.410Z,0
2018-05-27T01:31:32.968Z,0
2018-05-27T01:32:13.541Z,0
2018-05-27T01:32:54.129Z,0
2018-05-27T01:33:34.699Z,0
2018-05-27T01:34:15.253Z,0
2018-05-27T01:34:55.787Z,0
2018-05-27T01:35:36.343Z,0
2018-05-27T01:36:16.902Z,0
2018-05-27T01:36:57.444Z,0
2018-05-27T01:37:38.001Z,0
2018-05-27T01:38:18.564Z,0
2018-05-27T01:38:59.153Z,0
2018-05-27T01:39:39.715Z,0
2018-05-27T01:40:20.242Z,0
2018-05-27T01:41:00.794Z,0
2018-05-27T01:41:41.345Z,0
2018-05-27T01:42:21.927Z,0
2018-05-27T01:43:02.515Z,0
2018-05-27T01:43:43.089Z,0
2018-05-27T01:44:23.660Z,0
2018-05-27T01:45:04.234Z,0
2018-05-27T01:45:44.817Z,0
2018-05-27T01:46:25.380Z,0
2018-05-27T01:47:05.951Z,0
2018-05-27T01:47:46.507Z,0
2018-05-27T01:48:27.055Z,0
2018-05-27T01:49:07.617Z,0
2018-05-27T01:49:48.159Z,0
2018-05-27T01:50:28.707Z,0
2018-05-27T01:51:09.262Z,0
2018-05-27T01:51:49.818Z,0
2018-05-27T01:52:30.374Z,0
2018-05-27T01:53:10.927Z,0
2018-05-27T01:53:51.511Z,0
2018-05-27T01:54:32.061Z,0
2018-05-27T01:55:12.623Z,0
2018-05-27T01:55:53.145Z,0
2018-05-27T01:56:33.748Z,0
2018-05-27T01:57:14.300Z,0
2018-05-27T01:57:54.877Z,0
2018-05-27T01:58:35.573Z,0
2018-05-27T01:59:16.125Z,0
2018-05-27T01:59:56.697Z,0
2018-05-27T02:00:37.252Z,0
2018-05-27T02:01:17.830Z,0
2018-05-27T02:01:58.379Z,0
2018-05-27T02:02:38.931Z,0
2018-05-27T02:03:19.472Z,0
2018-05-27T02:04:00.020Z,0
2018-05-27T02:04:40.569Z,0
2018-05-27T02:05:21.133Z,0
2018-05-27T02:06:01.713Z,0
2018-05-27T02:06:42.260Z,0
2018-05-27T02:07:22.801Z,0
2018-05-27T02:08:03.352Z,0
2018-05-27T02:08:43.889Z,0
2018-05-27T02:09:24.435Z,0
2018-05-27T02:10:04.985Z,0
2018-05-27T02:10:45.558Z,0
2018-05-27T02:11:26.109Z,0
2018-05-27T02:12:06.673Z,0
2018-05-27T02:12:47.215Z,0
2018-05-27T02:13:27.783Z,0
2018-05-27T02:14:08.336Z,0
2018-05-27T02:14:48.903Z,0
2018-05-27T02:15:29.469Z,0
2018-05-27T02:16:10.034Z,0
2018-05-27T02:16:50.625Z,0
2018-05-27T02:17:31.191Z,0
2018-05-27T02:18:11.770Z,0
2018-05-27T02:18:52.335Z,0
2018-05-27T02:19:32.901Z,0
2018-05-27T02:20:13.458Z,0
2018-05-27T02:20:54.004Z,0
2018-05-27T02:21:34.573Z,0
2018-05-27T02:22:15.127Z,0
2018-05-27T02:22:55.684Z,0
2018-05-27T02:23:36.289Z,0
2018-05-27T02:24:16.829Z,0
2018-05-27T02:24:57.420Z,0
2018-05-27T02:25:37.984Z,0
2018-05-27T02:26:18.565Z,0
2018-05-27T02:26:59.113Z,0
2018-05-27T02:27:39.716Z,0
2018-05-27T02:28:20.271Z,0
2018-05-27T02:29:00.841Z,0
2018-05-27T02:29:41.407Z,0
2018-05-27T02:30:21.956Z,0
2018-05-27T02:31:02.529Z,0
2018-05-27T02:31:43.084Z,0
2018-05-27T02:32:23.691Z,0
2018-05-27T02:33:04.236Z,0
2018-05-27T02:33:44.777Z,0
2018-05-27T02:34:25.512Z,0
2018-05-27T02:35:05.962Z,0
2018-05-27T02:35:46.528Z,0
2018-05-27T02:36:27.062Z,0
2018-05-27T02:37:07.619Z,0
2018-05-27T02:37:48.181Z,0
2018-05-27T02:38:28.726Z,0
2018-05-27T02:39:09.298Z,0
2018-05-27T02:39:49.892Z,0
2018-05-27T02:40:30.457Z,0
2018-05-27T02:41:11.057Z,0
2018-05-27T02:41:51.586Z,0
2018-05-27T02:42:32.143Z,0
2018-05-27T02:43:12.690Z,0
2018-05-27T02:43:53.261Z,0
2018-05-27T02:44:33.810Z,0
2018-05-27T02:45:14.393Z,0
2018-05-27T02:45:54.956Z,0
2018-05-27T02:46:35.505Z,0
2018-05-27T02:47:16.071Z,0
2018-05-27T02:47:56.630Z,0
2018-05-27T02:48:37.195Z,0
2018-05-27T02:49:17.755Z,0
2018-05-27T02:49:58.354Z,0
2018-05-27T02:50:38.955Z,0
2018-05-27T02:51:19.516Z,0
2018-05-27T02:52:00.076Z,0
2018-05-27T02:52:40.629Z,0
2018-05-27T02:53:21.204Z,0
2018-05-27T02:54:01.751Z,0
2018-05-27T02:54:42.327Z,0
2018-05-27T02:55:22.907Z,0
2018-05-27T02:56:03.466Z,0
2018-05-27T02:56:44.010Z,0
2018-05-27T02:57:24.601Z,0
2018-05-27T02:58:05.177Z,0
2018-05-27T02:58:45.753Z,0
2018-05-27T02:59:26.315Z,0
2018-05-27T03:00:06.900Z,0
2018-05-27T03:00:47.472Z,0
2018-05-27T03:01:28.056Z,0
2018-05-27T03:02:08.599Z,0
2018-05-27T03:02:49.152Z,0
2018-05-27T03:03:29.746Z,5
2018-05-27T03:04:10.303Z,5
2018-05-27T03:04:50.869Z,5
2018-05-27T03:05:31.388Z,5
2018-05-27T03:06:11.976Z,5
2018-05-27T03:06:52.525Z,5
2018-05-27T03:07:33.078Z,5
2018-05-27T03:08:13.648Z,5
2018-05-27T03:08:54.211Z,5
2018-05-27T03:09:34.755Z,5
2018-05-27T03:10:15.289Z,5
2018-05-27T03:10:55.898Z,5
2018-05-27T03:11:36.453Z,5
2018-05-27T03:12:16.994Z,5
2018-05-27T03:12:57.529Z,5
2018-05-27T03:13:38.101Z,5
2018-05-27T03:14:18.648Z,5
2018-05-27T03:14:59.220Z,5
2018-05-27T03:15:39.768Z,5
2018-05-27T03:16:20.334Z,5
2018-05-27T03:17:00.883Z,10
2018-05-27T03:17:41.423Z,10
2018-05-27T03:18:22.029Z,10
2018-05-27T03:19:02.555Z,10
2018-05-27T03:19:43.099Z,10
2018-05-27T03:20:23.661Z,10
2018-05-27T03:21:04.259Z,10
2018-05-27T03:21:44.796Z,10
2018-05-27T03:22:25.382Z,10
2018-05-27T03:23:05.922Z,10
2018-05-27T03:23:46.483Z,10
2018-05-27T03:24:27.130Z,10
2018-05-27T03:25:07.728Z,10
2018-05-27T03:25:48.299Z,10
2018-05-27T03:26:28.877Z,10
2018-05-27T03:27:09.409Z,15
2018-05-27T03:27:50.013Z,15
2018-05-27T03:28:30.576Z,15
2018-05-27T03:29:11.152Z,15
2018-05-27T03:29:51.695Z,15
2018-05-27T03:30:32.305Z,15
2018-05-27T03:31:12.881Z,15
2018-05-27T03:31:53.413Z,15
2018-05-27T03:32:33.970Z,15
2018-05-27T03:33:14.544Z,15
2018-05-27T03:33:55.108Z,15
2018-05-27T03:34:35.684Z,15
2018-05-27T03:35:16.258Z,20
2018-05-27T03:35:56.823Z,20
2018-05-27T03:36:37.386Z,20
2018-05-27T03:37:17.994Z,20
2018-05-27T03:37:58.549Z,20
2018-05-27T03:38:39.108Z,20
2018-05-27T03:39:19.677Z,20
2018-05-27T03:40:00.242Z,20
2018-05-27T03:40:40.797Z,20
2018-05-27T03:41:21.377Z,20
2018-05-27T03:42:01.934Z,20
2018-05-27T03:42:42.530Z,25
2018-05-27T03:43:23.124Z,25
2018-05-27T03:44:03.731Z,25
2018-05-27T03:44:44.300Z,25
2018-05-27T03:45:24.879Z,25
2018-05-27T03:46:05.439Z,25
2018-05-27T03:46:46.017Z,25
2018-05-27T03:47:26.600Z,25
2018-05-27T03:48:07.174Z,25
2018-05-27T03:48:47.760Z,25
2018-05-27T03:49:28.312Z,30
2018-05-27T03:50:08.876Z,30
2018-05-27T03:50:49.452Z,30
2018-05-27T03:51:30.019Z,30
2018-05-27T03:52:10.595Z,30
2018-05-27T03:52:51.160Z,30
2018-05-27T03:53:31.728Z,30
2018-05-27T03:54:12.276Z,30
2018-05-27T03:54:52.835Z,30
2018-05-27T03:55:33.422Z,35
2018-05-27T03:56:13.971Z,35
2018-05-27T03:56:54.543Z,35
2018-05-27T03:57:35.100Z,35
2018-05-27T03:58:15.660Z,35
2018-05-27T03:58:56.241Z,35
2018-05-27T03:59:36.818Z,35
2018-05-27T04:00:17.412Z,35
2018-05-27T04:00:57.977Z,35
2018-05-27T04:01:38.568Z,40
2018-05-27T04:02:19.148Z,40
2018-05-27T04:02:59.713Z,40
2018-05-27T04:03:40.273Z,40
2018-05-27T04:04:20.842Z,40
2018-05-27T04:05:01.396Z,40
2018-05-27T04:05:41.943Z,40
2018-05-27T04:06:22.537Z,40
2018-05-27T04:07:03.118Z,45
2018-05-27T04:07:43.685Z,45
2018-05-27T04:08:24.232Z,45
2018-05-27T04:09:04.787Z,45
2018-05-27T04:09:45.343Z,45
2018-05-27T04:10:25.902Z,45
2018-05-27T04:11:06.466Z,45
2018-05-27T04:11:47.043Z,45
2018-05-27T04:12:27.619Z,50
2018-05-27T04:13:08.178Z,50
2018-05-27T04:13:48.739Z,50
2018-05-27T04:14:29.332Z,50
2018-05-27T04:15:09.909Z,50
2018-05-27T04:15:50.473Z,50
2018-05-27T04:16:31.031Z,50
2018-05-27T04:17:11.637Z,50
2018-05-27T04:17:52.188Z,55
2018-05-27T04:18:32.748Z,55
2018-05-27T04:19:13.311Z,55
2018-05-27T04:19:53.881Z,55
2018-05-27T04:20:34.445Z,55
2018-05-27T04:21:15.007Z,55
2018-05-27T04:21:55.546Z,55
2018-05-27T04:22:36.107Z,55
2018-05-27T04:23:16.694Z,60
2018-05-27T04:23:57.270Z,60
2018-05-27T04:24:37.836Z,60
2018-05-27T04:25:18.396Z,60
2018-05-27T04:25:59.071Z,60
2018-05-27T04:26:39.651Z,60
2018-05-27T04:27:20.203Z,60
2018-05-27T04:28:00.768Z,60
2018-05-27T04:28:41.487Z,65
2018-05-27T04:29:21.971Z,65
2018-05-27T04:30:02.529Z,65
2018-05-27T04:30:43.125Z,65
2018-05-27T04:31:23.729Z,65
2018-05-27T04:32:04.311Z,65
2018-05-27T04:32:44.886Z,70
2018-05-27T04:33:25.418Z,70
2018-05-27T04:34:06.040Z,70
2018-05-27T04:34:46.607Z,70
2018-05-27T04:35:27.195Z,70
2018-05-27T04:36:07.824Z,70
2018-05-27T04:36:48.394Z,70
2018-05-27T04:37:28.947Z,75
2018-05-27T04:38:09.547Z,75
2018-05-27T04:38:50.117Z,75
2018-05-27T04:39:30.695Z,75
2018-05-27T04:40:11.270Z,75
2018-05-27T04:40:51.888Z,75
2018-05-27T04:41:32.433Z,75
2018-05-27T04:42:12.989Z,80
2018-05-27T04:42:53.566Z,80
2018-05-27T04:43:34.108Z,80
2018-05-27T04:44:14.653Z,80
2018-05-27T04:44:55.233Z,80
2018-05-27T04:45:35.786Z,80
2018-05-27T04:46:16.365Z,80
2018-05-27T04:46:56.941Z,85
2018-05-27T04:47:37.483Z,85
2018-05-27T04:48:18.028Z,85
2018-05-27T04:48:58.583Z,85
2018-05-27T04:49:39.164Z,85
2018-05-27T04:50:19.717Z,85
2018-05-27T04:51:00.286Z,85
2018-05-27T04:51:40.846Z,90
2018-05-27T04:52:21.395Z,90
2018-05-27T04:53:01.968Z,90
2018-05-27T04:53:42.537Z,90
2018-05-27T04:54:23.109Z,90
2018-05-27T04:55:03.656Z,90
2018-05-27T04:55:44.204Z,95
2018-05-27T04:56:24.744Z,95
2018-05-27T04:57:05.360Z,95
2018-05-27T04:57:45.957Z,95
2018-05-27T04:58:26.536Z,95
2018-05-27T04:59:07.160Z,100
2018-05-27T04:59:47.750Z,100
2018-05-27T05:00:28.317Z,100
2018-05-27T05:01:08.882Z,100
2018-05-27T05:01:49.444Z,100
2018-05-27T05:02:30.010Z,100
2018-05-27T05:03:10.571Z,105
2018-05-27T05:03:51.221Z,105
2018-05-27T05:04:31.753Z,105
2018-05-27T05:05:12.314Z,105
2018-05-27T05:05:52.859Z,110
2018-05-27T05:06:33.421Z,110
2018-05-27T05:07:14.013Z,110
2018-05-27T05:07:54.552Z,110
2018-05-27T05:08:35.283Z,115
2018-05-27T05:09:15.909Z,115
2018-05-27T05:09:56.454Z,115
2018-05-27T05:10:37.003Z,115
2018-05-27T05:11:17.635Z,115
2018-05-27T05:11:58.186Z,115
2018-05-27T05:12:38.767Z,115
2018-05-27T05:13:19.304Z,115
2018-05-27T05:13:59.848Z,115
2018-05-27T05:14:40.465Z,115
2018-05-27T05:15:21.009Z,120
2018-05-27T05:16:01.590Z,120
2018-05-27T05:16:42.143Z,120
2018-05-27T05:17:22.704Z,120
2018-05-27T05:18:03.289Z,125
2018-05-27T05:18:43.836Z,125
2018-05-27T05:19:24.476Z,125
2018-05-27T05:20:05.006Z,130
2018-05-27T05:20:45.566Z,130
2018-05-27T05:21:26.139Z,130
2018-05-27T05:22:06.732Z,135
2018-05-27T05:22:47.269Z,135
2018-05-27T05:23:27.844Z,140
2018-05-27T05:24:08.423Z,140
2018-05-27T05:24:49.001Z,140
2018-05-27T05:25:29.549Z,145
2018-05-27T05:26:10.105Z,255
2018-05-27T05:26:50.643Z,630
2018-05-27T05:27:31.207Z,1000
2018-05-27T05:28:11.751Z,1195
2018-05-27T05:28:52.289Z,1185
2018-05-27T05:29:32.926Z,1180
2018-05-27T05:30:13.483Z,1200
2018-05-27T05:30:54.043Z,1205
2018-05-27T05:31:34.608Z,1295
2018-05-27T05:32:15.185Z,1335
2018-05-27T05:32:55.803Z,1335
2018-05-27T05:33:36.360Z,1265
2018-05-27T05:34:16.975Z,1275
2018-05-27T05:34:57.518Z,1335
2018-05-27T05:35:38.072Z,1350
2018-05-27T05:36:18.659Z,1335
2018-05-27T05:36:59.206Z,1335
2018-05-27T05:37:39.793Z,1355
2018-05-27T05:38:20.358Z,1310
2018-05-27T05:39:00.924Z,1320
2018-05-27T05:39:41.473Z,1355
2018-05-27T05:40:22.066Z,1340
2018-05-27T05:41:02.633Z,1295
2018-05-27T05:41:43.178Z,1265
2018-05-27T05:42:23.745Z,1320
2018-05-27T05:43:04.355Z,1400
2018-05-27T05:43:44.983Z,1410
2018-05-27T05:44:25.562Z,1380
2018-05-27T05:45:06.132Z,1310
2018-05-27T05:45:46.713Z,1325
2018-05-27T05:46:27.271Z,1315
2018-05-27T05:47:07.840Z,1305
2018-05-27T05:47:48.410Z,1355
2018-05-27T05:48:28.988Z,1360
2018-05-27T05:49:09.567Z,1340
2018-05-27T05:49:50.137Z,1360
2018-05-27T05:50:30.687Z,1410
2018-05-27T05:51:11.241Z,1405
2018-05-27T05:51:51.890Z,1425
2018-05-27T05:52:32.384Z,1455
2018-05-27T05:53:12.924Z,1395
2018-05-27T05:53:53.549Z,1375
2018-05-27T05:54:34.127Z,1395
2018-05-27T05:55:14.701Z,1440
2018-05-27T05:55:55.213Z,1430
2018-05-27T05:56:35.790Z,1465
2018-05-27T05:57:16.385Z,1435
2018-05-27T05:57:57.021Z,1425
2018-05-27T05:58:37.604Z,1440
2018-05-27T05:59:18.201Z,1410
2018-05-27T05:59:58.757Z,1355
2018-05-27T06:00:39.321Z,1370
2018-05-27T06:01:19.863Z,1410
2018-05-27T06:02:00.470Z,1420
2018-05-27T06:02:41.038Z,1470
2018-05-27T06:03:21.608Z,1520
2018-05-27T06:04:02.214Z,1540
2018-05-27T06:04:42.785Z,1550
2018-05-27T06:05:23.377Z,1515
2018-05-27T06:06:03.966Z,1500
2018-05-27T06:06:44.545Z,1490
2018-05-27T06:07:25.112Z,1515
2018-05-27T06:08:05.666Z,1495
2018-05-27T06:08:46.270Z,1475
2018-05-27T06:09:26.832Z,1500
2018-05-27T06:10:07.408Z,1530
2018-05-27T06:10:47.956Z,1545
2018-05-27T06:11:28.537Z,1530
2018-05-27T06:12:09.117Z,1490
2018-05-27T06:12:49.673Z,1495
2018-05-27T06:13:30.249Z,1535
2018-05-27T06:14:10.828Z,1500
2018-05-27T06:14:51.374Z,1520
2018-05-27T06:15:31.957Z,1540
2018-05-27T06:16:12.606Z,1590
2018-05-27T06:16:53.258Z,1575
2018-05-27T06:17:33.783Z,1630
2018-05-27T06:18:14.413Z,1650
2018-05-27T06:18:55.082Z,1675
2018-05-27T06:19:35.855Z,1655
2018-05-27T06:20:16.354Z,1610
2018-05-27T06:20:56.930Z,1615
2018-05-27T06:21:37.500Z,1645
2018-05-27T06:22:18.136Z,1680
2018-05-27T06:22:58.712Z,1665
2018-05-27T06:23:39.551Z,1665
2018-05-27T06:24:20.178Z,1650
2018-05-27T06:25:00.749Z,1660
2018-05-27T06:25:41.604Z,1660
2018-05-27T06:26:22.066Z,1590
2018-05-27T06:27:02.642Z,1560
2018-05-27T06:27:43.223Z,1605
2018-05-27T06:28:24.127Z,1690
2018-05-27T06:29:04.792Z,1670
2018-05-27T06:29:45.464Z,1645
2018-05-27T06:30:25.998Z,1670
2018-05-27T06:31:06.550Z,1645
2018-05-27T06:31:47.209Z,1595
2018-05-27T06:32:27.787Z,1545
2018-05-27T06:33:08.374Z,1560
2018-05-27T06:33:48.952Z,1540
2018-05-27T06:34:29.553Z,1620
2018-05-27T06:35:10.154Z,1655
2018-05-27T06:35:50.776Z,1630
2018-05-27T06:36:31.341Z,1625
2018-05-27T06:37:11.928Z,1580
2018-05-27T06:37:52.556Z,1515
2018-05-27T06:38:33.455Z,1525
2018-05-27T06:39:13.977Z,1610
2018-05-27T06:39:54.523Z,1635
2018-05-27T06:40:35.099Z,1550
2018-05-27T06:41:15.852Z,1635
2018-05-27T06:41:56.448Z,1725
2018-05-27T06:42:37.043Z,1720
2018-05-27T06:43:17.729Z,1695
2018-05-27T06:43:58.348Z,1640
2018-05-27T06:44:38.904Z,1700
2018-05-27T06:45:19.537Z,1655
2018-05-27T06:46:00.126Z,1645
2018-05-27T06:46:40.732Z,1655
2018-05-27T06:47:21.304Z,1670
2018-05-27T06:48:01.998Z,1690
2018-05-27T06:48:42.460Z,1695
2018-05-27T06:49:23.040Z,1695
2018-05-27T06:50:03.600Z,1725
2018-05-27T06:50:44.164Z,1780
2018-05-27T06:51:24.727Z,1715
2018-05-27T06:52:05.407Z,1605
2018-05-27T06:52:46.002Z,1575
2018-05-27T06:53:26.572Z,1655
2018-05-27T06:54:07.286Z,1665
2018-05-27T06:54:47.818Z,1730
2018-05-27T06:55:28.591Z,1740
2018-05-27T06:56:09.078Z,1765
2018-05-27T06:56:49.652Z,1775
2018-05-27T06:57:30.316Z,1730
2018-05-27T06:58:10.896Z,1715
2018-05-27T06:58:51.443Z,1735
2018-05-27T06:59:31.994Z,1700
2018-05-27T07:00:12.575Z,1690
2018-05-27T07:00:53.148Z,1635
2018-05-27T07:01:33.724Z,1570
2018-05-27T07:02:14.323Z,1555
2018-05-27T07:02:55.080Z,1525
2018-05-27T07:03:35.739Z,1470
2018-05-27T07:04:16.254Z,1430
2018-05-27T07:04:56.831Z,1400
2018-05-27T07:05:37.367Z,1320
2018-05-27T07:06:17.985Z,1225
2018-05-27T07:06:58.846Z,1105
2018-05-27T07:07:39.573Z,1010
2018-05-27T07:08:20.103Z,955
2018-05-27T07:09:00.663Z,905
2018-05-27T07:09:41.205Z,860
2018-05-27T07:10:21.761Z,825
2018-05-27T07:11:02.318Z,785
2018-05-27T07:11:42.910Z,740
2018-05-27T07:12:23.431Z,700
2018-05-27T07:13:03.985Z,665
2018-05-27T07:13:44.559Z,640
2018-05-27T07:14:25.095Z,625
2018-05-27T07:15:05.649Z,630
2018-05-27T07:15:46.233Z,620
2018-05-27T07:16:26.804Z,610
2018-05-27T07:17:07.490Z,595
2018-05-27T07:17:48.000Z,590
2018-05-27T07:18:28.712Z,585
2018-05-27T07:19:09.247Z,575
2018-05-27T07:19:49.837Z,575
2018-05-27T07:20:30.451Z,580
2018-05-27T07:21:11.047Z,585
2018-05-27T07:21:51.611Z,575
2018-05-27T07:22:32.182Z,565
2018-05-27T07:23:12.767Z,560
2018-05-27T07:23:53.341Z,560
2018-05-27T07:24:33.931Z,560
2018-05-27T07:25:14.523Z,565
2018-05-27T07:25:55.081Z,565
2018-05-27T07:26:35.661Z,560
2018-05-27T07:27:16.259Z,560
2018-05-27T07:27:56.838Z,555
2018-05-27T07:28:37.400Z,560
2018-05-27T07:29:17.977Z,555
2018-05-27T07:29:58.612Z,560
2018-05-27T07:30:39.184Z,560
2018-05-27T07:31:19.739Z,555
2018-05-27T07:32:00.317Z,560
2018-05-27T07:32:40.950Z,555
2018-05-27T07:33:21.611Z,550
2018-05-27T07:34:02.204Z,545
2018-05-27T07:34:42.756Z,540
2018-05-27T07:35:23.368Z,540
2018-05-27T07:36:03.962Z,545
2018-05-27T07:36:44.529Z,540
2018-05-27T07:37:25.098Z,540
2018-05-27T07:38:05.680Z,540
2018-05-27T07:38:46.239Z,540
2018-05-27T07:39:26.835Z,525
2018-05-27T07:40:07.383Z,520
2018-05-27T07:40:47.972Z,525
2018-05-27T07:41:28.530Z,525
2018-05-27T07:42:09.245Z,515
2018-05-27T07:42:49.769Z,515
2018-05-27T07:43:30.395Z,515
2018-05-27T07:44:11.751Z,515
2018-05-27T07:44:53.117Z,510
2018-05-27T07:45:35.305Z,520
2018-05-27T07:46:15.874Z,530
2018-05-27T07:46:56.454Z,530
2018-05-27T07:47:37.158Z,535
2018-05-27T07:48:17.763Z,535
2018-05-27T07:48:58.366Z,540
2018-05-27T07:49:38.920Z,535
2018-05-27T07:50:19.464Z,535
2018-05-27T07:51:00.041Z,525
2018-05-27T07:51:40.733Z,520
2018-05-27T07:52:21.231Z,515
2018-05-27T07:53:01.836Z,500
2018-05-27T07:53:42.436Z,495
2018-05-27T07:54:23.000Z,485
2018-05-27T07:55:03.584Z,470
2018-05-27T07:55:44.158Z,465
2018-05-27T07:56:24.746Z,455
2018-05-27T07:57:05.434Z,430
2018-05-27T07:57:46.016Z,410
2018-05-27T07:58:26.634Z,390
2018-05-27T07:59:07.144Z,385
2018-05-27T07:59:47.763Z,380
2018-05-27T08:00:28.327Z,375
2018-05-27T08:01:08.919Z,380
2018-05-27T08:01:49.529Z,370
2018-05-27T08:02:30.164Z,370
2018-05-27T08:03:10.744Z,370
2018-05-27T08:03:51.335Z,370
2018-05-27T08:04:31.905Z,365
2018-05-27T08:05:12.451Z,365
2018-05-27T08:05:53.067Z,360
2018-05-27T08:06:33.615Z,360
2018-05-27T08:07:14.280Z,355
2018-05-27T08:07:54.807Z,350
2018-05-27T08:08:35.364Z,350
2018-05-27T08:09:15.929Z,350
2018-05-27T08:09:56.491Z,345
2018-05-27T08:10:37.067Z,340
2018-05-27T08:11:17.654Z,340
2018-05-27T08:11:58.271Z,340
2018-05-27T08:12:38.830Z,335
2018-05-27T08:13:19.388Z,335
2018-05-27T08:13:59.982Z,330
2018-05-27T08:14:40.495Z,325
2018-05-27T08:15:21.079Z,320
2018-05-27T08:16:01.628Z,315
2018-05-27T08:16:42.199Z,315
2018-05-27T08:17:22.808Z,310
2018-05-27T08:18:03.378Z,305
2018-05-27T08:18:43.935Z,300
2018-05-27T08:19:24.483Z,300
2018-05-27T08:20:05.171Z,300
2018-05-27T08:20:45.629Z,295
2018-05-27T08:21:26.197Z,290
2018-05-27T08:22:06.771Z,290
2018-05-27T08:22:47.347Z,285
2018-05-27T08:23:28.092Z,280
2018-05-27T08:24:08.672Z,280
2018-05-27T08:24:49.248Z,275
2018-05-27T08:25:29.839Z,275
2018-05-27T08:26:10.413Z,270
2018-05-27T08:26:51.075Z,270
2018-05-27T08:27:31.636Z,265
2018-05-27T08:28:12.220Z,265
2018-05-27T08:28:52.766Z,265
2018-05-27T08:29:33.314Z,260
2018-05-27T08:30:13.909Z,260
2018-05-27T08:30:54.479Z,255
2018-05-27T08:31:35.262Z,260
2018-05-27T08:32:15.842Z,255
2018-05-27T08:32:56.402Z,255
2018-05-27T08:33:36.975Z,250
2018-05-27T08:34:17.532Z,250
2018-05-27T08:34:58.100Z,250
2018-05-27T08:35:38.658Z,250
2018-05-27T08:36:19.225Z,245
2018-05-27T08:36:59.799Z,250
2018-05-27T08:37:40.373Z,245
2018-05-27T08:38:20.961Z,245
2018-05-27T08:39:01.540Z,245
2018-05-27T08:39:42.115Z,240
2018-05-27T08:40:22.691Z,240
2018-05-27T08:41:03.221Z,240
2018-05-27T08:41:43.797Z,240
2018-05-27T08:42:24.369Z,235
2018-05-27T08:43:04.983Z,235
2018-05-27T08:43:45.545Z,235
2018-05-27T08:44:26.124Z,230
2018-05-27T08:45:06.698Z,230
2018-05-27T08:45:47.295Z,230
2018-05-27T08:46:27.879Z,225
2018-05-27T08:47:08.439Z,225
2018-05-27T08:47:49.010Z,225
2018-05-27T08:48:29.587Z,220
2018-05-27T08:49:10.243Z,220
2018-05-27T08:49:50.849Z,220
2018-05-27T08:50:31.523Z,220
2018-05-27T08:51:12.064Z,215
2018-05-27T08:51:52.740Z,215
2018-05-27T08:52:33.314Z,215
2018-05-27T08:53:13.938Z,215
2018-05-27T08:53:54.520Z,210
2018-05-27T08:54:35.122Z,210
2018-05-27T08:55:15.689Z,210
2018-05-27T08:55:56.247Z,210
2018-05-27T08:56:36.797Z,210
2018-05-27T08:57:17.398Z,210
2018-05-27T08:57:57.969Z,210
2018-05-27T08:58:38.541Z,210
2018-05-27T08:59:19.083Z,210
2018-05-27T08:59:59.702Z,210
2018-05-27T09:00:40.362Z,205
2018-05-27T09:01:22.215Z,205
2018-05-27T09:02:02.743Z,205
2018-05-27T09:02:43.250Z,205
2018-05-27T09:03:23.801Z,205
2018-05-27T09:04:04.361Z,205
2018-05-27T09:04:44.949Z,205
2018-05-27T09:05:25.528Z,200
2018-05-27T09:06:06.097Z,200
2018-05-27T09:06:46.693Z,200
2018-05-27T09:07:27.264Z,195
2018-05-27T09:08:07.848Z,195
2018-05-27T09:08:48.395Z,190
2018-05-27T09:09:29.042Z,190
2018-05-27T09:10:09.596Z,190
2018-05-27T09:10:50.141Z,190
2018-05-27T09:11:30.716Z,190
2018-05-27T09:12:11.317Z,185
2018-05-27T09:12:51.930Z,185
2018-05-27T09:13:32.628Z,185
2018-05-27T09:14:13.219Z,185
2018-05-27T09:14:53.838Z,180
2018-05-27T09:15:34.423Z,180
2018-05-27T09:16:14.957Z,180
2018-05-27T09:16:55.539Z,180
2018-05-27T09:17:36.124Z,180
2018-05-27T09:18:16.712Z,180
2018-05-27T09:18:57.299Z,175
2018-05-27T09:19:37.872Z,175
2018-05-27T09:20:18.415Z,175
2018-05-27T09:20:58.987Z,175
2018-05-27T09:21:39.633Z,175
2018-05-27T09:22:20.168Z,175
2018-05-27T09:23:00.760Z,175
2018-05-27T09:23:41.363Z,175
2018-05-27T09:24:21.928Z,170
2018-05-27T09:25:02.513Z,170
2018-05-27T09:25:43.067Z,170
2018-05-27T09:26:23.643Z,170
2018-05-27T09:27:04.228Z,170
2018-05-27T09:27:44.841Z,170
2018-05-27T09:28:25.452Z,170
2018-05-27T09:29:06.037Z,170
2018-05-27T09:29:46.780Z,170
2018-05-27T09:30:27.303Z,170
2018-05-27T09:31:07.895Z,170
2018-05-27T09:31:48.435Z,165
2018-05-27T09:32:28.997Z,165